Date,TemperatureHighF,TemperatureAvgF,TemperatureLowF,DewpointHighF,DewpointAvgF,DewpointLowF,HumidityHigh,HumidityAvg,HumidityLow,PressureMaxIn,PressureMinIn,WindSpeedMaxMPH,WindSpeedAvgMPH,GustSpeedMaxMPH,PrecipitationSumIn
2013-3-1,41.7,39.0,37.7,39.0,35.4,33.4,98,87,76,30.28,30.22,16,3,16,0.00
2013-3-2,41.1,38.3,36.9,34.5,33.4,32.2,86,83,75,30.26,30.18,11,3,11,0.00
2013-3-3,43.8,40.2,37.0,42.2,37.0,33.5,99,89,82,30.18,30.12,11,2,11,0.01
2013-3-4,53.4,42.1,32.8,40.7,35.4,30.6,93,78,60,30.12,29.79,18,4,18,0.00
2013-3-5,63.4,48.5,36.2,45.0,38.0,32.1,86,69,47,29.79,29.60,14,3,14,0.00
2013-3-6,59.8,53.0,43.6,48.5,42.6,37.2,79,68,56,29.60,29.49,10,3,11,0.00
2013-3-8,53.0,49.0,46.4,48.6,46.8,45.2,96,92,85,29.41,29.40,13,4,14,0.02
2013-3-9,46.4,42.5,36.7,45.3,42.1,35.9,100,98,96,29.45,29.34,16,5,16,0.98
2013-3-10,36.6,33.8,31.6,36.0,31.0,25.2,99,90,77,29.66,29.45,21,8,22,0.11
2013-3-11,31.6,30.2,28.8,27.5,25.3,23.8,92,82,75,29.69,29.65,27,12,29,0.00
2013-3-12,34.2,29.9,27.0,24.4,22.2,19.0,86,73,57,29.68,29.62,32,10,32,0.00
2013-3-13,42.4,33.7,26.1,36.7,29.2,22.0,93,84,70,29.74,29.60,16,3,17,0.04
2013-3-14,34.8,33.0,31.2,30.9,28.0,26.2,92,82,73,29.91,29.72,9,1,9,0.01
2013-3-15,38.6,34.7,30.7,36.7,32.1,26.3,100,90,82,29.89,29.72,25,6,25,0.11
2013-3-16,46.3,42.1,38.1,37.5,34.2,30.4,87,74,61,29.72,29.45,23,7,25,0.03
2013-3-17,49.3,44.4,32.0,43.9,40.3,32.0,96,86,70,29.46,29.18,18,5,18,0.02
2013-3-18,49.4,43.4,38.9,43.4,39.7,37.4,97,87,73,29.25,29.15,24,5,24,0.08
2013-3-19,45.4,40.7,35.6,42.0,38.0,33.7,100,90,86,29.48,29.24,12,3,13,0.03
2013-3-20,38.5,36.0,33.7,35.6,32.0,28.6,91,85,80,29.89,29.46,19,6,20,0.00
2013-3-21,35.8,34.0,32.8,32.4,29.8,28.3,92,84,81,30.04,29.89,13,3,13,0.00
2013-3-22,42.0,35.3,28.8,32.6,29.8,26.8,95,81,67,30.03,29.86,27,7,27,0.00
2013-3-23,38.3,33.7,29.9,27.6,24.0,17.3,83,68,57,29.91,29.83,29,9,29,0.00
2013-3-24,37.6,32.4,27.4,17.7,14.0,9.1,61,47,32,29.92,29.86,28,10,31,0.00
2013-3-25,42.4,34.9,29.3,22.6,19.5,16.8,66,54,40,29.92,29.83,33,10,35,0.00
2013-3-26,43.7,35.7,28.5,24.7,21.2,19.2,71,56,39,29.88,29.80,24,8,27,0.00
2013-3-27,46.1,36.2,27.9,25.2,23.0,21.3,81,60,39,29.84,29.74,20,6,22,0.00
2013-3-28,40.7,34.6,29.1,29.4,25.7,21.9,86,70,58,29.78,29.72,19,6,19,0.00
2013-3-29,40.2,34.3,28.8,32.2,29.3,26.8,94,83,64,29.75,29.70,12,3,12,0.00
2013-3-30,41.9,35.9,31.5,33.8,30.7,28.1,100,82,60,29.83,29.69,17,4,17,0.00
2013-3-31,40.6,35.7,30.1,32.9,30.4,27.8,92,81,66,29.88,29.83,16,4,17,0.00